Airfield :







YOU CAN JOIN US ON...

 
LOGIN :

Register | Disclaimer

   EN    FR    IT 

 









Legend :    VFR   Marginal VFR   IFR   Intensive IFR   Very Intensive IFR
Visi :
Ceiling :
>= 8 km
>= 3000ft
5 to 8 km
1000 to 3000 ft
1500m to 5 km
500 to 1000 ft
800 to 1500m
200 to 500 ft
< 800m
< 200 ft
Symbols :   Thunderstorms  Fog  Heavy snow  Heavy precipitations  Wind > 20 kt






- Airport Elevation : 461 ft
- IATA code : YYT


CYYT - St John's Int

CURRENT METAR :
  • 021933Z 09014G20KT 1/8SM R11/0800FT/N R16/1200FT/N FG VV002 02/02 A3012 RMK FG8 SLP207

EXPIRED METARs :
  • 021900Z 08014G20KT 1/8SM R11/0900FT/N R16/1200FT/N FG VV002 03/03 A3012 RMK FG8 SLP207
  • 021849Z 10013G18KT 1/8SM R11/0900FT/N R16/1200FT/N FG VV002 03/03 A3012 RMK FG8 SLP207
  • 021800Z 10012G22KT 1/8SM R11/1100FT/N R16/1200FT/N -DZ FG VV002 03/03 A3013 RMK FG8 SLP211
  • 021700Z 08010KT 1/8SM R11/0800FT/N R16/1000FT/N -DZ FG VV002 02/02 A3014 RMK FG8 SLP216

TAF TAF CYYT
Valid from the 02 at 18:00 until the 03 at 18:00 UTC


021744Z 0218/0318 08010KT 1/8SM -DZ FG VV002
TEMPO 0221/0314 1/2SM FG BKN002
FM031400 06015KT 3/4SM BR BKN003 OVC006
FM031600 06015G25KT P6SM OVC006
PROB30 0316/0318 1SM BR OVC003 RMK NXT FCST BY 030000Z



MET'MAP, your aeronautical weather chart ! - Copyright ORBIFLY December 2007 - Disclaimer

ORBIFLY MET'MAP TEAM :

Programming & Development : Alexandra Zaïnal
Concept & original design : Baudouin d'Aumeries
Assistance for programming : Marc-Olivier Méhu
Technical & hardware support : Manuel Goepfert

Contact : metmap@orbifly.com




SOURCES & CREDITS :

   NOAA